createdAt,value
2019-06-07T00:03:24.005Z,20.32
2019-06-07T00:07:23.059Z,20.25
2019-06-07T00:11:31.039Z,20.44
2019-06-07T00:15:39.474Z,20.46
2019-06-07T00:19:47.196Z,20.45
2019-06-07T00:23:55.356Z,20.29
2019-06-07T00:28:03.205Z,20.22
2019-06-07T00:32:11.741Z,20.51
2019-06-07T00:36:23.256Z,20.67
2019-06-07T00:40:32.447Z,20.71
2019-06-07T00:44:40.547Z,20.70
2019-06-07T00:48:48.616Z,20.60
2019-06-07T00:53:14.576Z,20.30
2019-06-07T00:57:06.920Z,19.99
2019-06-07T01:01:17.582Z,19.79
2019-06-07T01:05:31.120Z,19.67
2019-06-07T01:09:34.884Z,19.69
2019-06-07T01:13:42.551Z,20.01
2019-06-07T01:18:32.930Z,20.08
2019-06-07T01:22:00.828Z,19.99
2019-06-07T01:26:09.567Z,19.93
2019-06-07T01:30:19.039Z,20.08
2019-06-07T01:34:29.092Z,20.19
2019-06-07T01:38:36.818Z,20.24
2019-06-07T01:42:44.939Z,19.95
2019-06-07T01:46:52.953Z,19.72
2019-06-07T01:51:01.169Z,19.66
2019-06-07T01:55:09.556Z,19.80
2019-06-07T01:59:17.801Z,19.69
2019-06-07T02:03:29.362Z,19.63
2019-06-07T02:07:35.478Z,19.57
2019-06-07T02:11:43.237Z,19.48
2019-06-07T02:15:51.432Z,19.46
2019-06-07T02:19:58.822Z,19.36
2019-06-07T02:24:07.075Z,19.53
2019-06-07T02:28:31.975Z,19.54
2019-06-07T02:32:28.863Z,19.55
2019-06-07T02:36:40.905Z,19.39
2019-06-07T02:40:45.128Z,19.41
2019-06-07T02:44:52.999Z,19.63
2019-06-07T02:49:00.611Z,19.90
2019-06-07T02:53:08.315Z,19.99
2019-06-07T02:57:17.404Z,19.84
2019-06-07T03:01:28.556Z,19.76
2019-06-07T03:05:40.292Z,19.74
2019-06-07T03:09:47.153Z,19.86
2019-06-07T03:13:57.073Z,19.93
2019-06-07T03:18:11.622Z,19.99
2019-06-07T03:22:19.674Z,20.15
2019-06-07T03:26:30.421Z,19.92
2019-06-07T03:30:52.254Z,19.78
2019-06-07T03:34:47.186Z,19.85
2019-06-07T03:38:55.609Z,19.83
2019-06-07T03:43:03.551Z,19.67
2019-06-07T03:47:11.131Z,19.73
2019-06-07T03:51:25.157Z,19.78
2019-06-07T03:55:30.553Z,19.66
2019-06-07T03:59:40.952Z,19.84
2019-06-07T04:03:51.793Z,19.92
2019-06-07T04:07:57.459Z,19.94
2019-06-07T04:12:05.346Z,20.23
2019-06-07T04:16:13.348Z,20.50
2019-06-07T04:20:21.400Z,20.71
2019-06-07T04:24:31.032Z,20.92
2019-06-07T04:29:30.741Z,20.95
2019-06-07T04:32:49.666Z,21.19
2019-06-07T04:36:59.766Z,21.51
2019-06-07T04:41:08.226Z,21.61
2019-06-07T04:45:33.013Z,21.94
2019-06-07T04:49:27.146Z,22.42
2019-06-07T04:53:38.103Z,22.63
2019-06-07T04:57:44.737Z,22.80
2019-06-07T05:01:53.006Z,22.75
2019-06-07T05:06:01.164Z,22.92
2019-06-07T05:10:09.560Z,23.17
2019-06-07T05:14:17.571Z,23.48
2019-06-07T05:18:26.328Z,23.54
2019-06-07T05:22:38.910Z,23.74
2019-06-07T05:26:43.858Z,24.07
2019-06-07T05:31:08.126Z,24.24
2019-06-07T05:35:02.393Z,24.64
2019-06-07T05:39:10.781Z,24.68
2019-06-07T05:43:26.493Z,24.90
2019-06-07T05:47:38.443Z,25.33
2019-06-07T05:51:45.068Z,25.56
2019-06-07T05:55:53.731Z,25.81
2019-06-07T06:00:01.765Z,26.26
2019-06-07T06:04:09.783Z,26.39
2019-06-07T06:08:17.834Z,26.38
2019-06-07T06:12:35.351Z,26.38
2019-06-07T06:16:37.196Z,26.79
2019-06-07T06:21:09.795Z,26.97
2019-06-07T06:25:30.118Z,26.87
2019-06-07T06:29:05.295Z,26.87
2019-06-07T06:33:30.781Z,27.13
2019-06-07T06:37:23.046Z,27.42
2019-06-07T06:41:30.992Z,28.20
2019-06-07T06:45:40.182Z,28.52
2019-06-07T06:49:50.013Z,28.74
2019-06-07T06:53:57.960Z,28.74
2019-06-07T06:58:06.308Z,28.47
2019-06-07T07:02:14.114Z,28.75
2019-06-07T07:06:26.502Z,29.46
2019-06-07T07:10:41.270Z,29.85
2019-06-07T07:14:51.802Z,29.92
2019-06-07T07:18:58.002Z,30.26
2019-06-07T07:23:06.674Z,30.65
2019-06-07T07:27:14.654Z,29.93
2019-06-07T07:31:22.112Z,29.21
2019-06-07T07:35:30.227Z,29.06
2019-06-07T07:39:37.782Z,28.74
2019-06-07T07:43:52.920Z,28.37
2019-06-07T07:48:11.086Z,28.36
2019-06-07T07:52:05.667Z,29.82
2019-06-07T07:56:14.026Z,30.46
2019-06-07T08:00:49.994Z,30.05
2019-06-07T08:05:13.056Z,29.54
2019-06-07T08:08:42.766Z,29.13
2019-06-07T08:13:14.446Z,28.52
2019-06-07T08:17:01.916Z,28.06
2019-06-07T08:21:24.392Z,26.55
2019-06-07T08:25:20.124Z,26.55
2019-06-07T08:29:43.853Z,26.08
2019-06-07T08:33:37.505Z,24.99
2019-06-07T08:42:14.098Z,25.00
2019-06-07T08:46:07.790Z,24.80
2019-06-07T08:50:15.429Z,24.67
2019-06-07T08:54:23.680Z,26.15
2019-06-07T08:58:31.150Z,26.42
2019-06-07T09:02:39.260Z,25.86
2019-06-07T09:07:06.719Z,25.86
2019-06-07T09:10:58.932Z,27.30
2019-06-07T09:15:21.012Z,27.30
2019-06-07T09:19:16.573Z,29.40
2019-06-07T09:23:24.385Z,30.58
2019-06-07T09:27:32.726Z,31.36
2019-06-07T09:31:52.537Z,30.79
2019-06-07T09:35:50.410Z,29.53
2019-06-07T09:40:05.648Z,29.58
2019-06-07T09:44:21.589Z,30.61
2019-06-07T09:49:01.340Z,31.36
2019-06-07T09:52:26.984Z,31.45
2019-06-07T09:56:35.053Z,31.14
2019-06-07T10:00:43.149Z,30.34
2019-06-07T10:04:50.737Z,30.49
2019-06-07T10:10:07.109Z,31.17
2019-06-07T10:13:08.895Z,31.60
2019-06-07T10:17:18.242Z,32.12
2019-06-07T10:21:25.862Z,31.52
2019-06-07T10:25:33.918Z,30.31
2019-06-07T10:29:41.514Z,30.13
2019-06-07T10:33:49.573Z,30.33
2019-06-07T10:37:58.341Z,30.97
2019-06-07T10:42:07.651Z,31.41
2019-06-07T10:46:16.023Z,32.22
2019-06-07T10:50:24.301Z,32.47
2019-06-07T10:54:31.853Z,32.85
2019-06-07T10:58:40.942Z,33.21
2019-06-07T11:02:48.436Z,33.96
2019-06-07T11:06:56.498Z,34.59
2019-06-07T11:11:04.471Z,34.52
2019-06-07T11:15:13.052Z,34.16
2019-06-07T11:19:21.067Z,34.50
2019-06-07T11:23:28.651Z,34.86
2019-06-07T11:27:36.719Z,34.60
2019-06-07T11:31:47.394Z,33.46
2019-06-07T11:35:55.294Z,33.01
2019-06-07T11:40:03.310Z,32.89
2019-06-07T11:44:11.245Z,32.92
2019-06-07T11:48:19.266Z,33.13
2019-06-07T11:52:26.940Z,33.24
2019-06-07T11:56:36.650Z,32.80
2019-06-07T12:00:44.842Z,32.17
2019-06-07T12:04:53.865Z,32.42
2019-06-07T12:09:01.770Z,33.32
2019-06-07T12:13:12.598Z,33.37
2019-06-07T12:17:20.984Z,33.12
2019-06-07T12:21:28.708Z,33.19
2019-06-07T12:25:37.378Z,32.08
2019-06-07T12:29:45.170Z,31.48
2019-06-07T12:33:53.422Z,30.86
2019-06-07T12:38:01.597Z,30.75
2019-06-07T12:42:10.033Z,30.51
2019-06-07T12:46:24.291Z,29.74
2019-06-07T12:50:41.935Z,28.80
2019-06-07T12:54:37.687Z,28.40
2019-06-07T12:58:45.658Z,28.40
2019-06-07T13:02:53.740Z,27.99
2019-06-07T13:07:01.646Z,28.18
2019-06-07T13:11:17.415Z,28.23
2019-06-07T13:15:21.594Z,27.92
2019-06-07T13:19:28.684Z,27.69
2019-06-07T13:23:36.806Z,28.19
2019-06-07T13:27:44.632Z,28.69
2019-06-07T13:31:52.209Z,29.11
2019-06-07T13:36:00.712Z,29.34
2019-06-07T13:40:10.087Z,29.30
2019-06-07T13:44:18.690Z,29.54
2019-06-07T13:48:27.748Z,30.28
2019-06-07T13:52:35.915Z,30.53
2019-06-07T13:57:01.386Z,30.85
2019-06-07T14:00:54.677Z,30.80
2019-06-07T14:05:02.605Z,30.46
2019-06-07T14:09:10.810Z,30.11
2019-06-07T14:13:19.485Z,30.09
2019-06-07T14:17:28.251Z,30.32
2019-06-07T14:21:37.001Z,31.04
2019-06-07T14:25:46.028Z,31.35
2019-06-07T14:29:53.708Z,31.61
2019-06-07T14:34:02.271Z,31.63
2019-06-07T14:38:10.783Z,31.40
2019-06-07T14:42:18.911Z,31.15
2019-06-07T14:46:28.194Z,31.49
2019-06-07T14:50:36.401Z,30.96
2019-06-07T14:54:44.024Z,29.75
2019-06-07T14:58:52.201Z,29.39
2019-06-07T15:03:00.018Z,28.91
2019-06-07T15:07:09.573Z,28.56
2019-06-07T15:11:17.561Z,28.28
2019-06-07T15:15:26.417Z,28.02
2019-06-07T15:19:36.256Z,27.82
2019-06-07T15:23:45.605Z,28.02
2019-06-07T15:27:53.756Z,28.24
2019-06-07T15:32:01.271Z,28.37
2019-06-07T15:36:09.485Z,27.84
2019-06-07T15:40:17.580Z,27.40
2019-06-07T15:44:25.666Z,27.28
2019-06-07T15:48:33.980Z,27.27
2019-06-07T15:52:43.360Z,27.22
2019-06-07T15:56:51.328Z,27.18
2019-06-07T16:00:58.981Z,26.97
2019-06-07T16:05:07.468Z,27.30
2019-06-07T16:09:15.303Z,27.23
2019-06-07T16:13:24.519Z,26.68
2019-06-07T16:17:32.992Z,26.55
2019-06-07T16:21:41.518Z,26.70
2019-06-07T16:25:49.203Z,27.11
2019-06-07T16:29:57.214Z,26.13
2019-06-07T16:34:05.422Z,26.13
2019-06-07T16:38:13.393Z,26.70
2019-06-07T16:42:21.557Z,26.08
2019-06-07T16:46:29.751Z,26.30
2019-06-07T16:50:37.290Z,26.71
2019-06-07T16:54:45.802Z,26.68
2019-06-07T16:58:54.195Z,26.32
2019-06-07T17:03:02.256Z,25.99
2019-06-07T17:07:11.074Z,25.87
2019-06-07T17:11:19.163Z,25.81
2019-06-07T17:15:26.759Z,25.81
2019-06-07T17:19:34.634Z,25.87
2019-06-07T17:23:43.790Z,25.67
2019-06-07T17:27:52.180Z,25.52
2019-06-07T17:31:59.985Z,25.38
2019-06-07T17:36:08.355Z,25.21
2019-06-07T17:40:18.931Z,25.10
2019-06-07T17:44:26.818Z,25.49
2019-06-07T17:48:34.615Z,25.52
2019-06-07T17:52:43.788Z,25.74
2019-06-07T17:56:53.247Z,25.74
2019-06-07T18:01:03.298Z,25.55
2019-06-07T18:05:12.102Z,25.82
2019-06-07T18:09:20.636Z,26.03
2019-06-07T18:13:28.621Z,26.00
2019-06-07T18:17:37.186Z,25.71
2019-06-07T18:21:45.260Z,25.71
2019-06-07T18:25:54.706Z,25.47
2019-06-07T18:30:11.343Z,25.60
2019-06-07T18:34:12.859Z,25.60
2019-06-07T18:38:21.014Z,25.66
2019-06-07T18:42:29.506Z,25.18
2019-06-07T18:46:37.625Z,25.02
2019-06-07T18:50:46.415Z,24.79
2019-06-07T18:54:55.116Z,24.79
2019-06-07T18:59:02.989Z,25.01
2019-06-07T19:03:10.794Z,25.01
2019-06-07T19:07:18.432Z,24.90
2019-06-07T19:11:26.698Z,24.78
2019-06-07T19:15:34.682Z,24.67
2019-06-07T19:19:43.045Z,24.65
2019-06-07T19:23:51.755Z,24.56
2019-06-07T19:28:01.058Z,24.42
2019-06-07T19:32:08.707Z,24.32
2019-06-07T19:36:16.836Z,24.25
2019-06-07T19:40:25.884Z,24.33
2019-06-07T19:44:33.818Z,24.04
2019-06-07T19:48:42.117Z,23.88
2019-06-07T19:52:50.228Z,23.83
2019-06-07T19:56:59.459Z,23.54
2019-06-07T20:01:07.704Z,23.58
2019-06-07T20:05:16.460Z,23.58
2019-06-07T20:09:25.045Z,23.55
2019-06-07T20:13:32.550Z,23.59
2019-06-07T20:17:40.686Z,23.30
2019-06-07T20:21:48.612Z,23.29
2019-06-07T20:25:56.708Z,23.52
2019-06-07T20:30:05.504Z,23.52
2019-06-07T20:34:13.124Z,23.44
2019-06-07T20:38:21.369Z,23.27
2019-06-07T20:42:29.243Z,23.07
2019-06-07T20:46:37.339Z,23.09
2019-06-07T20:50:45.708Z,23.24
2019-06-07T20:54:53.597Z,23.39
2019-06-07T20:59:02.807Z,23.55
2019-06-07T21:03:10.648Z,23.69
2019-06-07T21:07:18.576Z,23.60
2019-06-07T21:11:26.609Z,23.63
2019-06-07T21:15:47.887Z,23.68
2019-06-07T21:19:44.660Z,23.48
2019-06-07T21:23:52.594Z,23.38
2019-06-07T21:28:01.024Z,23.35
2019-06-07T21:32:11.643Z,23.22
2019-06-07T21:36:19.498Z,23.04
2019-06-07T21:40:27.753Z,23.04
2019-06-07T21:44:35.527Z,23.11
2019-06-07T21:48:44.043Z,22.88
2019-06-07T21:52:52.811Z,23.01
2019-06-07T21:57:00.479Z,23.01
2019-06-07T22:01:18.396Z,23.11
2019-06-07T22:05:26.565Z,23.27
2019-06-07T22:09:34.341Z,23.14
2019-06-07T22:13:43.614Z,22.98
2019-06-07T22:17:51.369Z,22.98
2019-06-07T22:22:02.910Z,22.87
2019-06-07T22:26:11.273Z,22.66
2019-06-07T22:30:19.244Z,22.66
2019-06-07T22:34:27.592Z,22.57
2019-06-07T22:38:35.378Z,22.54
2019-06-07T22:42:43.320Z,22.49
2019-06-07T22:46:51.331Z,22.42
2019-06-07T22:51:00.382Z,22.42
2019-06-07T22:55:10.688Z,22.43
2019-06-07T22:59:20.645Z,22.33
2019-06-07T23:03:28.477Z,22.21
2019-06-07T23:07:37.356Z,22.36
2019-06-07T23:11:45.025Z,22.52
2019-06-07T23:15:53.442Z,22.64
2019-06-07T23:20:01.446Z,22.57
2019-06-07T23:24:09.807Z,22.44
2019-06-07T23:28:18.775Z,22.17
2019-06-07T23:32:26.569Z,22.10
2019-06-07T23:36:34.771Z,22.02
2019-06-07T23:40:43.120Z,22.07
2019-06-07T23:44:50.592Z,22.13
2019-06-07T23:48:58.591Z,22.16
2019-06-07T23:53:06.509Z,22.18
2019-06-07T23:57:14.072Z,22.18
